createdAt,value
2022-07-30T00:01:18.314Z,2.10
2022-07-30T00:03:45.506Z,1.77
2022-07-30T00:06:12.724Z,2.25
2022-07-30T00:08:39.797Z,2.38
2022-07-30T00:11:06.979Z,1.85
2022-07-30T00:13:34.098Z,1.50
2022-07-30T00:16:01.150Z,1.55
2022-07-30T00:18:28.205Z,1.90
2022-07-30T00:20:55.252Z,2.20
2022-07-30T00:23:23.572Z,2.00
2022-07-30T00:25:50.659Z,2.03
2022-07-30T00:28:17.674Z,1.65
2022-07-30T00:30:44.747Z,2.35
2022-07-30T00:33:11.863Z,1.77
2022-07-30T00:35:39.692Z,1.92
2022-07-30T00:38:06.745Z,1.88
2022-07-30T00:40:33.940Z,1.80
2022-07-30T00:43:01.000Z,2.10
2022-07-30T00:45:28.184Z,2.17
2022-07-30T00:47:55.343Z,2.10
2022-07-30T00:50:22.379Z,1.92
2022-07-30T00:52:49.542Z,2.60
2022-07-30T00:55:16.708Z,2.45
2022-07-30T00:57:44.653Z,2.25
2022-07-30T01:00:15.195Z,2.30
2022-07-30T01:02:42.383Z,2.08
2022-07-30T01:05:10.083Z,2.13
2022-07-30T01:07:37.536Z,2.45
2022-07-30T01:10:06.843Z,1.98
2022-07-30T01:12:34.094Z,2.30
2022-07-30T01:15:04.869Z,2.08
2022-07-30T01:17:32.694Z,2.60
2022-07-30T01:20:04.286Z,1.90
2022-07-30T01:22:48.270Z,1.95
2022-07-30T01:25:21.166Z,2.00
2022-07-30T01:28:03.134Z,2.10
2022-07-30T01:30:34.844Z,2.10
2022-07-30T01:33:04.634Z,2.50
2022-07-30T01:35:33.733Z,1.98
2022-07-30T01:38:03.985Z,2.03
2022-07-30T01:40:32.148Z,2.47
2022-07-30T01:43:03.078Z,2.40
2022-07-30T01:45:35.671Z,1.95
2022-07-30T01:48:11.017Z,2.13
2022-07-30T01:50:42.584Z,2.40
2022-07-30T01:53:15.520Z,2.17
2022-07-30T01:55:43.813Z,1.88
2022-07-30T01:58:13.324Z,2.15
2022-07-30T02:00:43.550Z,2.30
2022-07-30T02:03:11.500Z,2.13
2022-07-30T02:05:42.824Z,2.35
2022-07-30T02:08:18.585Z,2.47
2022-07-30T02:10:52.689Z,2.83
2022-07-30T02:13:26.902Z,2.20
2022-07-30T02:15:59.558Z,2.50
2022-07-30T02:21:10.162Z,2.42
2022-07-30T02:23:43.725Z,2.50
2022-07-30T02:26:18.517Z,2.60
2022-07-30T02:28:49.697Z,2.08
2022-07-30T02:31:20.918Z,2.30
2022-07-30T02:33:50.270Z,1.92
2022-07-30T02:36:19.180Z,2.00
2022-07-30T02:38:50.635Z,2.42
2022-07-30T02:41:22.093Z,2.30
2022-07-30T02:43:51.570Z,2.13
2022-07-30T02:46:22.718Z,2.08
2022-07-30T02:49:11.759Z,2.10
2022-07-30T02:51:42.133Z,2.05
2022-07-30T02:54:10.328Z,2.20
2022-07-30T02:56:42.293Z,2.35
2022-07-30T02:59:11.568Z,2.10
2022-07-30T03:01:39.180Z,2.15
2022-07-30T03:04:08.490Z,2.47
2022-07-30T03:06:36.317Z,2.05
2022-07-30T03:09:04.529Z,2.60
2022-07-30T03:11:33.036Z,2.60
2022-07-30T03:14:01.457Z,3.28
2022-07-30T03:16:30.661Z,3.53
2022-07-30T03:19:02.273Z,3.40
2022-07-30T03:21:35.624Z,2.80
2022-07-30T03:24:05.013Z,2.38
2022-07-30T03:26:34.855Z,2.55
2022-07-30T03:29:03.098Z,3.00
2022-07-30T03:31:36.392Z,2.58
2022-07-30T03:34:09.071Z,2.90
2022-07-30T03:36:38.360Z,2.97
2022-07-30T03:39:07.110Z,2.63
2022-07-30T03:41:36.314Z,3.00
2022-07-30T03:44:07.720Z,2.50
2022-07-30T03:46:39.027Z,2.40
2022-07-30T03:49:06.762Z,2.50
2022-07-30T03:51:34.707Z,2.40
2022-07-30T03:54:02.900Z,2.33
2022-07-30T03:56:39.482Z,2.88
2022-07-30T03:59:10.304Z,2.90
2022-07-30T04:01:40.894Z,2.20
2022-07-30T04:04:15.851Z,2.05
2022-07-30T04:06:43.208Z,2.75
2022-07-30T04:09:12.340Z,2.30
2022-07-30T04:11:40.823Z,2.75
2022-07-30T04:14:10.839Z,2.75
2022-07-30T04:16:59.470Z,2.60
2022-07-30T04:19:39.317Z,2.75
2022-07-30T04:22:08.661Z,2.33
2022-07-30T04:24:39.354Z,2.58
2022-07-30T04:27:06.840Z,3.00
2022-07-30T04:29:34.712Z,2.55
2022-07-30T04:32:02.313Z,2.50
2022-07-30T04:35:04.945Z,2.65
2022-07-30T04:37:54.849Z,2.30
2022-07-30T04:40:22.060Z,3.53
2022-07-30T04:42:49.458Z,2.67
2022-07-30T04:45:20.054Z,2.55
2022-07-30T04:47:53.707Z,2.20
2022-07-30T04:50:26.211Z,2.72
2022-07-30T04:52:55.944Z,2.28
2022-07-30T04:55:29.008Z,2.30
2022-07-30T04:57:57.414Z,2.80
2022-07-30T05:00:24.541Z,2.75
2022-07-30T05:02:55.118Z,2.50
2022-07-30T05:05:24.194Z,2.70
2022-07-30T05:07:52.420Z,2.97
2022-07-30T05:10:19.907Z,2.97
2022-07-30T05:12:47.065Z,2.95
2022-07-30T05:15:17.430Z,2.80
2022-07-30T05:17:45.162Z,2.90
2022-07-30T05:20:14.223Z,3.70
2022-07-30T05:23:00.400Z,3.15
2022-07-30T05:25:27.588Z,2.70
2022-07-30T05:28:01.408Z,2.97
2022-07-30T05:30:29.261Z,2.58
2022-07-30T05:32:59.145Z,2.85
2022-07-30T05:35:31.500Z,2.80
2022-07-30T05:38:01.782Z,2.92
2022-07-30T05:40:34.767Z,2.92
2022-07-30T05:43:24.396Z,3.47
2022-07-30T05:45:51.458Z,2.70
2022-07-30T05:48:18.634Z,3.15
2022-07-30T05:50:45.689Z,2.75
2022-07-30T05:53:12.701Z,3.15
2022-07-30T05:55:58.740Z,3.17
2022-07-30T05:58:53.270Z,3.65
2022-07-30T06:01:32.433Z,3.53
2022-07-30T06:06:54.809Z,3.83
2022-07-30T06:09:36.945Z,3.72
2022-07-30T06:12:05.339Z,3.55
2022-07-30T06:14:32.643Z,3.40
2022-07-30T06:17:00.492Z,3.40
2022-07-30T06:19:34.894Z,4.40
2022-07-30T06:22:06.160Z,3.80
2022-07-30T06:24:39.327Z,4.30
2022-07-30T06:29:48.941Z,4.80
2022-07-30T06:32:17.292Z,4.78
2022-07-30T06:34:44.333Z,5.60
2022-07-30T06:37:11.593Z,4.40
2022-07-30T06:39:58.020Z,4.93
2022-07-30T06:42:39.742Z,5.05
2022-07-30T06:45:30.615Z,4.50
2022-07-30T06:48:14.550Z,5.50
2022-07-30T06:50:42.488Z,5.05
2022-07-30T06:53:09.758Z,6.40
2022-07-30T06:55:58.486Z,4.75
2022-07-30T06:58:32.192Z,4.78
2022-07-30T07:01:23.450Z,4.60
2022-07-30T07:03:50.745Z,4.90
2022-07-30T07:06:18.481Z,4.93
2022-07-30T07:08:45.553Z,5.15
2022-07-30T07:11:16.256Z,4.68
2022-07-30T07:13:54.137Z,4.43
2022-07-30T07:16:31.824Z,4.90
2022-07-30T07:19:02.428Z,5.30
2022-07-30T07:21:29.714Z,4.65
2022-07-30T07:23:56.874Z,4.80
2022-07-30T07:26:51.275Z,4.20
2022-07-30T07:29:18.523Z,4.68
2022-07-30T07:32:06.962Z,5.25
2022-07-30T07:34:32.764Z,4.32
2022-07-30T07:37:00.152Z,4.80
2022-07-30T07:39:27.468Z,4.80
2022-07-30T07:41:55.400Z,4.53
2022-07-30T07:44:25.088Z,5.25
2022-07-30T07:46:52.311Z,5.88
2022-07-30T07:49:20.573Z,5.60
2022-07-30T07:51:50.749Z,4.07
2022-07-30T07:54:22.529Z,4.35
2022-07-30T07:56:57.524Z,4.70
2022-07-30T07:59:41.047Z,4.20
2022-07-30T08:02:26.478Z,4.15
2022-07-30T08:05:02.097Z,4.75
2022-07-30T08:07:42.706Z,3.60
2022-07-30T08:10:16.154Z,3.65
2022-07-30T08:12:49.529Z,4.13
2022-07-30T08:15:31.525Z,3.75
2022-07-30T08:21:15.481Z,3.55
2022-07-30T08:23:42.772Z,3.78
2022-07-30T08:26:10.141Z,3.50
2022-07-30T08:28:37.269Z,3.42
2022-07-30T08:31:07.026Z,3.05
2022-07-30T08:33:34.708Z,4.30
2022-07-30T08:36:04.109Z,3.60
2022-07-30T08:38:36.891Z,3.58
2022-07-30T08:41:04.134Z,4.18
2022-07-30T08:43:31.783Z,4.38
2022-07-30T08:46:00.416Z,4.32
2022-07-30T08:48:52.171Z,5.72
2022-07-30T08:51:20.652Z,7.50
2022-07-30T08:54:06.614Z,4.47
2022-07-30T08:56:34.771Z,5.05
2022-07-30T08:59:02.687Z,4.65
2022-07-30T09:01:29.757Z,3.17
2022-07-30T09:03:57.707Z,4.90
2022-07-30T09:06:27.448Z,4.13
2022-07-30T09:08:54.661Z,4.03
2022-07-30T09:11:22.669Z,5.13
2022-07-30T09:13:50.879Z,4.68
2022-07-30T09:16:23.363Z,5.05
2022-07-30T09:19:00.126Z,4.28
2022-07-30T09:21:29.164Z,4.43
2022-07-30T09:24:28.388Z,4.40
2022-07-30T09:27:13.981Z,3.92
2022-07-30T09:29:59.710Z,5.65
2022-07-30T09:32:57.594Z,5.60
2022-07-30T09:35:43.420Z,5.43
2022-07-30T09:38:11.425Z,3.95
2022-07-30T09:41:17.258Z,3.85
2022-07-30T09:44:08.087Z,3.25
2022-07-30T09:46:42.606Z,3.35
2022-07-30T09:49:18.683Z,3.15
2022-07-30T09:51:56.663Z,3.70
2022-07-30T09:54:51.187Z,4.18
2022-07-30T09:57:26.370Z,5.65
2022-07-30T10:00:01.160Z,5.40
2022-07-30T10:02:33.059Z,4.32
2022-07-30T10:05:20.342Z,4.50
2022-07-30T10:07:52.330Z,4.28
2022-07-30T10:10:25.762Z,4.63
2022-07-30T10:12:58.298Z,4.95
2022-07-30T10:15:30.129Z,6.03
2022-07-30T10:18:00.478Z,4.88
2022-07-30T10:20:47.389Z,5.72
2022-07-30T10:23:34.537Z,5.82
2022-07-30T10:26:23.471Z,6.07
2022-07-30T10:29:09.233Z,5.95
2022-07-30T10:31:48.942Z,4.40
2022-07-30T10:34:19.229Z,4.95
2022-07-30T10:36:54.866Z,6.18
2022-07-30T10:39:27.524Z,5.22
2022-07-30T10:42:34.269Z,5.15
2022-07-30T10:45:19.707Z,5.32
2022-07-30T10:47:49.032Z,5.32
2022-07-30T10:50:22.467Z,4.38
2022-07-30T10:52:50.733Z,4.55
2022-07-30T10:55:37.166Z,3.80
2022-07-30T10:58:12.216Z,4.20
2022-07-30T11:00:51.652Z,4.65
2022-07-30T11:03:41.390Z,3.08
2022-07-30T11:06:15.468Z,3.70
2022-07-30T11:08:48.505Z,3.28
2022-07-30T11:11:59.505Z,3.58
2022-07-30T11:14:09.010Z,2.70
2022-07-30T11:16:37.112Z,4.15
2022-07-30T11:19:55.190Z,3.38
2022-07-30T11:22:31.302Z,3.35
2022-07-30T11:25:00.324Z,3.55
2022-07-30T11:27:37.129Z,2.88
2022-07-30T11:30:26.004Z,2.33
2022-07-30T11:32:57.250Z,2.95
2022-07-30T11:35:34.506Z,2.90
2022-07-30T11:38:09.394Z,3.30
2022-07-30T11:40:40.234Z,2.75
2022-07-30T11:43:17.030Z,2.60
2022-07-30T11:45:48.739Z,2.67
2022-07-30T11:48:18.339Z,3.00
2022-07-30T11:50:47.199Z,2.88
2022-07-30T11:53:17.867Z,3.17
2022-07-30T11:55:51.023Z,2.58
2022-07-30T11:58:39.681Z,3.30
2022-07-30T12:01:12.717Z,3.67
2022-07-30T12:03:45.381Z,3.08
2022-07-30T12:06:17.957Z,2.95
2022-07-30T12:11:16.635Z,2.22
2022-07-30T12:13:54.552Z,2.83
2022-07-30T12:16:21.791Z,2.83
2022-07-30T12:18:48.902Z,2.88
2022-07-30T12:21:16.465Z,3.28
2022-07-30T12:23:56.565Z,3.47
2022-07-30T12:26:26.658Z,3.30
2022-07-30T12:28:56.444Z,2.53
2022-07-30T12:31:24.050Z,2.30
2022-07-30T12:33:51.196Z,3.92
2022-07-30T12:36:31.038Z,3.00
2022-07-30T12:38:59.503Z,2.97
2022-07-30T12:41:43.108Z,2.63
2022-07-30T12:44:10.224Z,2.30
2022-07-30T12:46:40.653Z,2.10
2022-07-30T12:49:21.284Z,2.72
2022-07-30T12:52:00.114Z,2.22
2022-07-30T12:54:27.838Z,2.78
2022-07-30T12:56:59.515Z,2.15
2022-07-30T12:59:27.551Z,2.17
2022-07-30T13:01:57.089Z,2.10
2022-07-30T13:04:24.685Z,3.45
2022-07-30T13:07:09.071Z,2.13
2022-07-30T13:09:36.718Z,2.15
2022-07-30T13:12:04.418Z,2.20
2022-07-30T13:14:31.642Z,2.72
2022-07-30T13:16:58.851Z,2.45
2022-07-30T13:19:26.661Z,2.17
2022-07-30T13:21:53.833Z,1.92
2022-07-30T13:24:21.166Z,2.17
2022-07-30T13:27:01.163Z,3.08
2022-07-30T13:29:28.264Z,1.92
2022-07-30T13:31:55.420Z,2.15
2022-07-30T13:34:22.513Z,1.98
2022-07-30T13:36:49.586Z,1.98
2022-07-30T13:39:16.760Z,1.80
2022-07-30T13:41:43.797Z,1.98
2022-07-30T13:44:10.842Z,2.30
2022-07-30T13:46:41.060Z,2.08
2022-07-30T13:49:08.481Z,2.85
2022-07-30T13:51:35.599Z,1.77
2022-07-30T13:54:02.897Z,2.35
2022-07-30T13:56:29.892Z,2.30
2022-07-30T13:58:56.961Z,1.52
2022-07-30T14:01:24.063Z,1.50
2022-07-30T14:03:51.233Z,1.90
2022-07-30T14:06:19.082Z,2.20
2022-07-30T14:08:46.249Z,2.30
2022-07-30T14:11:13.613Z,2.85
2022-07-30T14:13:40.772Z,1.58
2022-07-30T14:16:28.489Z,1.48
2022-07-30T14:18:57.312Z,1.83
2022-07-30T14:21:25.013Z,2.00
2022-07-30T14:23:52.057Z,1.45
2022-07-30T14:26:19.131Z,1.70
2022-07-30T14:28:46.205Z,1.70
2022-07-30T14:31:13.205Z,1.60
2022-07-30T14:33:40.256Z,1.67
2022-07-30T14:36:07.391Z,1.70
2022-07-30T14:38:34.409Z,1.75
2022-07-30T14:41:01.459Z,1.60
2022-07-30T14:43:28.489Z,1.38
2022-07-30T14:45:55.490Z,1.20
2022-07-30T14:48:22.503Z,1.38
2022-07-30T14:51:12.129Z,2.35
2022-07-30T14:53:37.574Z,1.30
2022-07-30T14:56:04.799Z,1.50
2022-07-30T14:58:31.846Z,2.20
2022-07-30T15:00:59.727Z,1.40
2022-07-30T15:03:44.462Z,1.38
2022-07-30T15:06:12.894Z,1.17
2022-07-30T15:08:39.989Z,1.20
2022-07-30T15:11:08.197Z,1.70
2022-07-30T15:13:37.130Z,1.75
2022-07-30T15:16:16.684Z,1.55
2022-07-30T15:18:43.691Z,1.40
2022-07-30T15:21:12.364Z,1.75
2022-07-30T15:23:39.400Z,1.70
2022-07-30T15:26:06.608Z,1.20
2022-07-30T15:28:33.665Z,1.50
2022-07-30T15:31:00.892Z,7.35
2022-07-30T15:33:27.901Z,2.85
2022-07-30T15:35:54.900Z,1.88
2022-07-30T15:38:23.129Z,1.58
2022-07-30T15:40:50.281Z,1.60
2022-07-30T15:43:17.293Z,2.25
2022-07-30T15:45:55.266Z,1.58
2022-07-30T15:48:26.882Z,1.60
2022-07-30T15:51:00.709Z,1.80
2022-07-30T15:53:27.737Z,1.73
2022-07-30T15:55:54.738Z,1.25
2022-07-30T15:58:22.039Z,1.40
2022-07-30T16:00:49.439Z,1.42
2022-07-30T16:03:16.543Z,1.77
2022-07-30T16:05:52.027Z,1.35
2022-07-30T16:08:20.750Z,1.77
2022-07-30T16:10:49.060Z,1.00
2022-07-30T16:13:16.209Z,1.10
2022-07-30T16:15:43.354Z,1.00
2022-07-30T16:18:10.452Z,1.13
2022-07-30T16:20:37.510Z,1.00
2022-07-30T16:23:07.051Z,0.90
2022-07-30T16:25:37.461Z,1.38
2022-07-30T16:28:04.613Z,1.33
2022-07-30T16:30:31.628Z,1.08
2022-07-30T16:32:58.645Z,1.35
2022-07-30T16:35:25.721Z,1.10
2022-07-30T16:37:54.097Z,1.02
2022-07-30T16:40:21.312Z,1.52
2022-07-30T16:42:48.371Z,1.17
2022-07-30T16:45:15.375Z,0.90
2022-07-30T16:47:42.459Z,1.15
2022-07-30T16:50:10.090Z,0.80
2022-07-30T16:52:37.125Z,0.70
2022-07-30T16:55:04.439Z,1.23
2022-07-30T16:57:31.470Z,1.77
2022-07-30T16:59:58.625Z,1.00
2022-07-30T17:02:25.633Z,1.25
2022-07-30T17:04:52.761Z,0.70
2022-07-30T17:07:19.851Z,1.30
2022-07-30T17:09:51.919Z,1.13
2022-07-30T17:12:25.467Z,0.88
2022-07-30T17:14:54.328Z,0.90
2022-07-30T17:17:21.334Z,0.82
2022-07-30T17:19:48.457Z,0.60
2022-07-30T17:22:15.799Z,0.90
2022-07-30T17:24:42.892Z,0.80
2022-07-30T17:27:09.908Z,0.90
2022-07-30T17:29:48.394Z,1.00
2022-07-30T17:32:19.269Z,0.50
2022-07-30T17:34:47.296Z,1.05
2022-07-30T17:37:14.668Z,0.70
2022-07-30T17:40:28.542Z,0.70
2022-07-30T17:42:28.846Z,0.43
2022-07-30T17:44:56.018Z,0.70
2022-07-30T17:47:23.248Z,0.77
2022-07-30T17:49:50.338Z,0.70
2022-07-30T17:52:17.472Z,0.73
2022-07-30T17:54:44.488Z,1.40
2022-07-30T17:57:13.096Z,0.70
2022-07-30T17:59:40.138Z,0.55
2022-07-30T18:02:07.363Z,1.17
2022-07-30T18:04:34.766Z,0.90
2022-07-30T18:07:02.633Z,0.88
2022-07-30T18:09:31.143Z,0.60
2022-07-30T18:12:06.569Z,0.68
2022-07-30T18:14:33.854Z,0.80
2022-07-30T18:17:03.470Z,0.77
2022-07-30T18:19:30.685Z,0.80
2022-07-30T18:21:57.839Z,0.70
2022-07-30T18:24:29.362Z,0.75
2022-07-30T18:26:56.366Z,0.65
2022-07-30T18:29:23.489Z,0.77
2022-07-30T18:31:50.496Z,1.10
2022-07-30T18:34:17.546Z,0.82
2022-07-30T18:36:44.646Z,0.77
2022-07-30T18:39:11.646Z,1.17
2022-07-30T18:41:38.653Z,0.90
2022-07-30T18:44:05.674Z,0.90
2022-07-30T18:46:32.704Z,1.02
2022-07-30T18:49:10.843Z,1.70
2022-07-30T18:51:47.343Z,0.80
2022-07-30T18:54:15.909Z,0.63
2022-07-30T18:56:42.949Z,0.65
2022-07-30T18:59:10.043Z,1.55
2022-07-30T19:01:39.067Z,1.98
2022-07-30T19:04:06.507Z,1.17
2022-07-30T19:06:33.648Z,0.98
2022-07-30T19:09:00.679Z,1.08
2022-07-30T19:11:27.684Z,1.02
2022-07-30T19:13:54.706Z,0.75
2022-07-30T19:16:21.777Z,1.13
2022-07-30T19:18:48.797Z,0.90
2022-07-30T19:21:15.924Z,1.20
2022-07-30T19:23:42.906Z,1.02
2022-07-30T19:26:10.020Z,1.08
2022-07-30T19:28:38.031Z,1.10
2022-07-30T19:31:05.077Z,1.25
2022-07-30T19:33:32.069Z,0.85
2022-07-30T19:35:59.117Z,1.00
2022-07-30T19:38:26.121Z,0.90
2022-07-30T19:40:53.125Z,1.17
2022-07-30T19:43:23.758Z,1.58
2022-07-30T19:45:52.369Z,1.20
2022-07-30T19:48:29.662Z,1.02
2022-07-30T19:50:59.594Z,1.35
2022-07-30T19:53:31.559Z,1.00
2022-07-30T19:56:04.484Z,1.40
2022-07-30T19:58:36.605Z,1.20
2022-07-30T20:01:08.523Z,1.00
2022-07-30T20:03:36.334Z,1.52
2022-07-30T20:06:07.533Z,1.48
2022-07-30T20:08:36.050Z,1.05
2022-07-30T20:11:05.916Z,0.90
2022-07-30T20:13:45.370Z,1.00
2022-07-30T20:16:15.472Z,1.30
2022-07-30T20:18:44.424Z,1.25
2022-07-30T20:21:15.676Z,1.70
2022-07-30T20:23:44.796Z,1.42
2022-07-30T20:26:14.132Z,1.33
2022-07-30T20:28:43.830Z,1.13
2022-07-30T20:31:13.175Z,1.30
2022-07-30T20:33:40.793Z,1.38
2022-07-30T20:36:09.819Z,0.98
2022-07-30T20:38:38.937Z,1.20
2022-07-30T20:41:09.959Z,1.10
2022-07-30T20:43:46.172Z,1.23
2022-07-30T20:46:20.493Z,1.30
2022-07-30T20:48:50.829Z,1.30
2022-07-30T20:51:17.989Z,1.42
2022-07-30T20:53:45.739Z,1.20
2022-07-30T20:56:14.904Z,1.33
2022-07-30T20:58:46.100Z,1.25
2022-07-30T21:01:17.460Z,1.50
2022-07-30T21:03:47.847Z,1.13
2022-07-30T21:06:16.505Z,1.58
2022-07-30T21:08:43.768Z,1.25
2022-07-30T21:11:12.724Z,1.30
2022-07-30T21:13:41.962Z,1.88
2022-07-30T21:16:15.825Z,1.40
2022-07-30T21:18:49.298Z,1.40
2022-07-30T21:21:28.928Z,1.33
2022-07-30T21:24:05.783Z,1.23
2022-07-30T21:26:41.408Z,1.67
2022-07-30T21:29:09.143Z,1.50
2022-07-30T21:32:01.680Z,1.27
2022-07-30T21:34:26.381Z,1.65
2022-07-30T21:36:54.499Z,2.13
2022-07-30T21:39:28.661Z,1.80
2022-07-30T21:41:56.564Z,1.38
2022-07-30T21:44:23.854Z,1.40
2022-07-30T21:46:50.925Z,1.50
2022-07-30T21:49:18.226Z,1.50
2022-07-30T21:51:46.436Z,1.30
2022-07-30T21:54:17.040Z,1.40
2022-07-30T21:56:53.509Z,1.38
2022-07-30T21:59:23.399Z,1.20
2022-07-30T22:01:50.696Z,1.70
2022-07-30T22:04:22.365Z,1.30
2022-07-30T22:06:49.433Z,1.45
2022-07-30T22:09:19.133Z,1.65
2022-07-30T22:14:29.110Z,1.60
2022-07-30T22:16:56.818Z,1.50
2022-07-30T22:19:25.795Z,1.75
2022-07-30T22:21:53.150Z,1.27
2022-07-30T22:24:29.784Z,1.50
2022-07-30T22:27:01.304Z,2.50
2022-07-30T22:29:34.463Z,1.55
2022-07-30T22:32:04.032Z,1.42
2022-07-30T22:34:32.400Z,1.48
2022-07-30T22:36:59.466Z,1.67
2022-07-30T22:42:13.805Z,2.15
2022-07-30T22:44:45.891Z,1.60
2022-07-30T22:47:21.127Z,1.20
2022-07-30T22:50:03.147Z,1.35
2022-07-30T22:52:37.065Z,1.52
2022-07-30T22:55:09.157Z,1.45
2022-07-30T22:57:38.044Z,2.38
2022-07-30T23:00:11.734Z,1.65
2022-07-30T23:02:40.162Z,2.22
2022-07-30T23:05:08.833Z,1.60
2022-07-30T23:07:38.863Z,1.42
2022-07-30T23:10:17.281Z,1.60
2022-07-30T23:12:29.024Z,1.25
2022-07-30T23:12:48.823Z,1.40
2022-07-30T23:15:16.357Z,1.70
2022-07-30T23:17:43.891Z,1.73
2022-07-30T23:20:14.860Z,1.45
2022-07-30T23:22:42.190Z,1.77
2022-07-30T23:25:10.891Z,1.50
2022-07-30T23:27:39.201Z,1.40
2022-07-30T23:30:10.922Z,1.73
2022-07-30T23:32:39.823Z,1.60
2022-07-30T23:35:08.885Z,1.45
2022-07-30T23:37:47.819Z,1.60
2022-07-30T23:40:19.150Z,1.60
2022-07-30T23:42:47.504Z,1.90
2022-07-30T23:45:14.673Z,1.60
2022-07-30T23:48:00.219Z,1.40
2022-07-30T23:50:33.162Z,1.77
2022-07-30T23:53:01.796Z,1.42
2022-07-30T23:55:30.285Z,1.90
2022-07-30T23:57:58.060Z,2.03
